Time;durP1;ratioP1;P1;durP2;ratioP2;P2;SDS_P1;SDS_P2;PMS_P1;PMS_P2;Temp;Humidity;BMP_temperature;BMP_pressure;BME280_temperature;BME280_humidity;BME280_pressure;Samples;Min_cycle;Max_cycle;Signal;HPM_P1;HPM_P2
2024/04/19 00:00:48;;;;;;;7.63;6.77;;;;;;;10.67;55.03;98998.19;7363147;26;20246;-82
2024/04/19 00:04:11;;;;;;;8.83;6.37;;;;;;;10.50;54.66;98984.25;7378704;26;20280;-82
2024/04/19 00:07:37;;;;;;;7.23;6.53;;;;;;;10.70;54.83;98993.25;7378314;26;20229;-82
2024/04/19 00:11:01;;;;;;;7.13;6.37;;;;;;;10.24;55.85;98985.97;7377909;26;20241;-82
2024/04/19 00:14:24;;;;;;;7.03;6.27;;;;;;;10.52;55.28;98987.56;7380004;26;20867;-82
2024/04/19 00:17:44;;;;;;;6.87;6.10;;;;;;;10.68;53.94;98983.72;7378753;26;20268;-82
2024/04/19 00:21:07;;;;;;;6.70;6.00;;;;;;;10.18;55.74;98984.06;7377911;26;20233;-81
2024/04/19 00:24:33;;;;;;;7.83;5.83;;;;;;;10.38;54.65;98974.22;7376175;26;20221;-82
2024/04/19 00:27:56;;;;;;;6.30;5.70;;;;;;;10.50;54.59;98981.53;7359541;26;20235;-82
2024/04/19 00:31:20;;;;;;;6.57;5.57;;;;;;;10.65;54.14;98971.47;7329012;26;20242;-83
2024/04/19 00:34:43;;;;;;;7.53;5.73;;;;;;;10.55;53.73;98965.59;7333957;27;20681;-83
2024/04/19 00:38:06;;;;;;;6.40;5.63;;;;;;;10.45;54.04;98956.25;7333321;27;20227;-82
2024/04/19 00:41:32;;;;;;;6.97;6.27;;;;;;;10.57;53.84;98958.13;7334425;26;20243;-82
2024/04/19 00:44:55;;;;;;;7.67;5.93;;;;;;;10.65;54.03;98954.44;7334525;27;20226;-82
2024/04/19 00:48:17;;;;;;;8.60;5.70;;;;;;;10.83;53.36;98946.63;7333293;27;20274;-81
2024/04/19 00:51:40;;;;;;;6.40;5.80;;;;;;;10.74;53.23;98948.66;7333760;26;20234;-82
2024/04/19 00:55:03;;;;;;;6.50;5.63;;;;;;;10.68;53.86;98954.06;7334838;27;20265;-83
2024/04/19 00:58:30;;;;;;;5.90;5.30;;;;;;;10.82;53.34;98956.59;7333285;27;20269;-82
2024/04/19 01:01:54;;;;;;;7.33;5.77;;;;;;;10.66;53.81;98962.34;7334514;26;20273;-82
2024/04/19 01:05:17;;;;;;;12.53;6.03;;;;;;;10.81;53.63;98959.47;7365720;26;20319;-82
2024/04/19 01:08:40;;;;;;;6.97;6.27;;;;;;;10.80;53.53;98953.25;7380860;26;20612;-83
2024/04/19 01:12:03;;;;;;;6.93;6.23;;;;;;;10.63;54.01;98951.13;7382170;26;20238;-84
2024/04/19 01:15:27;;;;;;;7.43;6.30;;;;;;;10.32;54.39;98948.06;7381859;26;20235;-82
2024/04/19 01:18:50;;;;;;;7.97;6.13;;;;;;;10.34;54.71;98954.91;7381425;26;20317;-83
2024/04/19 01:22:11;;;;;;;7.70;6.63;;;;;;;10.40;54.83;98943.34;7382963;26;20748;-82
2024/04/19 01:25:36;;;;;;;6.87;6.27;;;;;;;10.31;54.76;98941.03;7342023;26;20298;-82
2024/04/19 01:29:02;;;;;;;7.13;6.20;;;;;;;10.59;54.05;98936.38;7333567;27;20402;-83
2024/04/19 01:32:25;;;;;;;7.07;6.13;;;;;;;9.81;55.56;98925.97;7334352;26;20780;-82
2024/04/19 01:35:48;;;;;;;6.60;5.90;;;;;;;10.25;55.44;98944.50;7335250;27;20300;-83
2024/04/19 01:39:11;;;;;;;6.53;5.87;;;;;;;10.61;54.63;98940.53;7335048;27;20709;-82
2024/04/19 01:42:35;;;;;;;8.63;6.50;;;;;;;10.70;53.91;98925.81;7335297;26;20242;-82
2024/04/19 01:46:00;;;;;;;7.27;6.37;;;;;;;10.78;53.89;98922.13;7335240;27;20235;-82
2024/04/19 01:49:23;;;;;;;8.23;5.87;;;;;;;10.81;52.93;98910.94;7334537;27;20313;-81
2024/04/19 01:52:47;;;;;;;7.00;6.03;;;;;;;10.77;53.82;98907.81;7335219;26;20239;-83
2024/04/19 01:56:10;;;;;;;6.73;6.13;;;;;;;10.73;53.76;98906.56;7335278;27;20235;-82
2024/04/19 01:59:33;;;;;;;6.70;5.87;;;;;;;10.68;53.92;98887.47;7337449;27;20261;-82
2024/04/19 02:02:59;;;;;;;7.40;6.67;;;;;;;10.74;53.92;98900.13;7341432;26;20289;-82
2024/04/19 02:06:22;;;;;;;7.67;6.50;;;;;;;10.81;53.49;98913.63;7336420;27;20226;-82
2024/04/19 02:09:45;;;;;;;8.57;6.17;;;;;;;10.65;53.55;98889.72;7333211;27;20226;-82
2024/04/19 02:13:08;;;;;;;8.33;6.30;;;;;;;10.42;54.72;98897.31;7334502;27;20231;-82
2024/04/19 02:16:29;;;;;;;7.20;6.10;;;;;;;10.14;55.11;98893.88;7335037;27;20227;-82
2024/04/19 02:19:55;;;;;;;8.57;7.13;;;;;;;9.71;55.54;98887.84;7334190;26;20239;-82
2024/04/19 02:23:23;;;;;;;6.60;6.00;;;;;;;10.23;54.41;98887.31;7334872;27;20270;-82
2024/04/19 02:26:52;;;;;;;7.57;6.67;;;;;;;10.42;54.51;98883.84;7334316;27;20226;-81
2024/04/19 02:33:54;;;;;;;9.00;6.87;;;;;;;10.46;55.25;98879.72;7381209;26;20234;-82
2024/04/19 02:37:20;;;;;;;7.63;6.63;;;;;;;9.92;56.70;98873.44;7381833;26;20264;-82
2024/04/19 02:40:43;;;;;;;7.13;6.43;;;;;;;10.30;55.86;98869.28;7382361;26;20237;-82
2024/04/19 02:44:06;;;;;;;8.03;6.27;;;;;;;10.31;55.70;98871.78;7382888;26;20584;-82
2024/04/19 02:47:29;;;;;;;8.13;6.50;;;;;;;10.51;54.58;98856.50;7383567;26;20675;-84
2024/04/19 02:50:53;;;;;;;7.03;6.33;;;;;;;10.05;55.58;98849.31;7384584;26;20234;-82
2024/04/19 02:54:19;;;;;;;6.33;5.73;;;;;;;10.26;55.49;98855.41;7396156;26;20271;-83
2024/04/19 02:57:42;;;;;;;7.97;6.37;;;;;;;10.34;55.83;98839.03;7376350;26;20253;-83
2024/04/19 03:01:06;;;;;;;7.90;6.27;;;;;;;10.36;55.68;98845.06;7378240;26;20229;-82
2024/04/19 03:04:29;;;;;;;7.83;6.43;;;;;;;9.97;56.46;98826.03;7366692;26;20288;-84
2024/04/19 03:07:52;;;;;;;6.80;6.10;;;;;;;9.92;56.28;98833.06;7375248;26;20226;-83
2024/04/19 03:11:18;;;;;;;5.90;5.30;;;;;;;10.01;55.61;98829.16;7375366;26;20237;-84
2024/04/19 03:14:41;;;;;;;8.83;6.13;;;;;;;10.49;53.56;98825.41;7374361;26;20773;-84
2024/04/19 03:18:04;;;;;;;6.77;5.50;;;;;;;10.77;52.87;98818.81;7375318;26;20277;-83
2024/04/19 03:21:27;;;;;;;7.20;5.80;;;;;;;10.12;54.87;98798.97;7335746;26;20284;-83
2024/04/19 03:24:50;;;;;;;9.97;6.90;;;;;;;10.52;54.83;98830.41;7348707;26;20276;-84
2024/04/19 03:28:16;;;;;;;6.93;6.10;;;;;;;10.14;56.25;98821.13;7375441;26;20229;-84
2024/04/19 03:31:39;;;;;;;7.20;6.50;;;;;;;10.73;54.34;98812.19;7376068;26;20238;-84
2024/04/19 03:35:02;;;;;;;7.07;6.37;;;;;;;10.93;54.09;98809.50;7376434;26;20225;-83
2024/04/19 03:38:28;;;;;;;12.07;7.13;;;;;;;10.54;55.10;98796.81;7374584;26;20628;-84
2024/04/19 03:41:51;;;;;;;7.87;7.10;;;;;;;10.65;55.47;98795.34;7376354;26;20302;-83
2024/04/19 03:48:57;;;;;;;9.37;7.07;;;;;;;10.92;54.46;98786.25;7378382;26;20226;-84
2024/04/19 03:52:20;;;;;;;7.00;6.30;;;;;;;10.79;53.09;98770.91;7375391;26;20230;-83
2024/04/19 03:55:43;;;;;;;7.00;5.73;;;;;;;10.85;52.98;98788.09;7375222;26;20235;-84
2024/04/19 03:59:06;;;;;;;7.43;6.60;;;;;;;10.32;53.38;98778.28;7373832;26;20241;-84
2024/04/19 04:02:32;;;;;;;8.80;6.23;;;;;;;9.90;54.66;98770.47;7375784;26;20774;-84
2024/04/19 04:05:55;;;;;;;8.17;6.50;;;;;;;10.52;53.01;98769.19;7374127;26;20254;-83
2024/04/19 04:09:18;;;;;;;7.50;5.80;;;;;;;10.77;52.62;98774.84;7374399;26;20567;-84
2024/04/19 04:12:42;;;;;;;7.50;5.80;;;;;;;10.69;51.11;98753.47;7375548;26;20238;-84
2024/04/19 04:16:06;;;;;;;5.70;4.67;;;;;;;10.68;50.17;98765.31;7375921;26;20337;-84
2024/04/19 04:19:31;;;;;;;7.33;5.50;;;;;;;10.80;49.16;98758.25;7374407;26;20246;-84
2024/04/19 04:22:54;;;;;;;8.00;5.20;;;;;;;10.76;50.07;98757.00;7375259;26;20288;-84
2024/04/19 04:26:18;;;;;;;6.40;5.37;;;;;;;10.75;49.53;98750.75;7375130;26;20226;-84
2024/04/19 04:29:41;;;;;;;8.27;4.83;;;;;;;10.75;49.31;98750.75;7373436;26;20732;-84
2024/04/19 04:33:04;;;;;;;6.53;5.27;;;;;;;10.59;49.63;98739.56;7374666;26;20226;-83
2024/04/19 04:36:30;;;;;;;5.77;5.20;;;;;;;11.09;49.33;98733.53;7375107;26;20276;-84
2024/04/19 04:39:53;;;;;;;7.13;5.67;;;;;;;10.57;48.98;98717.38;7374276;26;20268;-84
2024/04/19 04:43:16;;;;;;;8.83;5.50;;;;;;;11.00;49.54;98738.31;7374801;26;20217;-84
2024/04/19 04:46:40;;;;;;;6.07;5.47;;;;;;;10.94;49.31;98739.16;7373532;26;20284;-79
2024/04/19 04:50:03;;;;;;;6.83;5.50;;;;;;;11.19;49.39;98728.53;7377900;26;20241;-83
2024/04/19 04:53:29;;;;;;;8.17;6.33;;;;;;;10.88;49.84;98747.25;7358746;26;20563;-82
2024/04/19 04:56:52;;;;;;;11.47;5.87;;;;;;;10.73;49.97;98747.47;7350535;26;20232;-84
2024/04/19 05:00:15;;;;;;;7.23;5.93;;;;;;;10.75;50.60;98750.75;7350891;26;20243;-83
2024/04/19 05:03:38;;;;;;;9.53;5.87;;;;;;;10.97;50.06;98724.41;7328672;26;20244;-82
2024/04/19 05:07:02;;;;;;;7.33;6.10;;;;;;;10.86;50.38;98733.16;7350460;26;20238;-83
2024/04/19 05:10:29;;;;;;;8.40;6.47;;;;;;;11.24;49.94;98739.53;7355214;26;20248;-85
2024/04/19 05:13:52;;;;;;;8.80;6.23;;;;;;;10.82;51.12;98734.59;7328297;26;20254;-82
2024/04/19 05:17:16;;;;;;;7.90;6.50;;;;;;;10.65;51.53;98719.88;7331677;26;20717;-85
2024/04/19 05:20:39;;;;;;;8.57;6.47;;;;;;;10.48;52.03;98716.75;7380332;26;20280;-83
2024/04/19 05:24:02;;;;;;;8.60;6.70;;;;;;;10.74;51.66;98726.72;7352430;26;20246;-82
2024/04/19 05:27:28;;;;;;;8.27;6.57;;;;;;;10.90;51.13;98710.94;7331543;27;20315;-82
2024/04/19 05:30:51;;;;;;;9.00;6.67;;;;;;;11.14;50.93;98721.06;7332875;26;20239;-82
2024/04/19 05:34:14;;;;;;;9.63;6.17;;;;;;;11.05;50.65;98700.72;7362526;26;20278;-81
2024/04/19 05:37:37;;;;;;;7.70;6.37;;;;;;;10.73;52.03;98720.50;7379968;26;20214;-82
2024/04/19 05:41:00;;;;;;;7.87;6.27;;;;;;;10.75;51.72;98728.38;7380703;26;20605;-81
2024/04/19 05:44:31;;;;;;;8.47;6.97;;;;;;;10.67;52.14;98720.47;7350334;26;20239;-83
2024/04/19 05:47:54;;;;;;;7.37;6.67;;;;;;;11.00;51.46;98722.13;7331499;27;20230;-81
2024/04/19 05:51:17;;;;;;;8.23;6.37;;;;;;;11.04;50.83;98714.44;7330263;26;20231;-79
2024/04/19 05:54:40;;;;;;;9.47;6.30;;;;;;;10.47;51.69;98717.81;7374189;26;20635;-79
2024/04/19 05:58:04;;;;;;;11.27;8.70;;;;;;;10.61;51.70;98722.16;7376065;26;20578;-81
2024/04/19 06:01:29;;;;;;;7.50;6.47;;;;;;;11.11;50.92;98717.97;7377680;26;20249;-81
2024/04/19 06:04:52;;;;;;;8.00;6.20;;;;;;;10.68;51.77;98708.69;7347511;26;20230;-79
2024/04/19 06:08:16;;;;;;;6.80;6.10;;;;;;;11.37;49.92;98704.38;7376698;26;20307;-81
2024/04/19 06:11:39;;;;;;;7.30;6.43;;;;;;;11.48;49.35;98709.97;7376756;26;20242;-80
2024/04/19 06:15:02;;;;;;;8.20;6.27;;;;;;;10.89;50.77;98700.34;7374310;26;20281;-79
2024/04/19 06:18:28;;;;;;;5.93;5.27;;;;;;;11.33;49.40;98693.19;7371402;26;20276;-81
2024/04/19 06:21:51;;;;;;;5.77;5.07;;;;;;;11.61;48.41;98711.81;7362539;26;20489;-84
2024/04/19 06:25:14;;;;;;;6.10;5.43;;;;;;;11.22;49.27;98680.34;7369381;26;20246;-83
2024/04/19 06:28:40;;;;;;;5.70;5.07;;;;;;;11.41;49.01;98694.84;7373664;26;20238;-84
2024/04/19 06:32:03;;;;;;;6.10;5.20;;;;;;;11.13;49.61;98696.97;7377007;26;20242;-84
2024/04/19 06:35:29;;;;;;;7.63;5.27;;;;;;;11.39;49.54;98713.94;7379464;26;20222;-81
2024/04/19 06:38:52;;;;;;;6.70;5.50;;;;;;;11.43;49.40;98688.19;7381595;26;20237;-81
2024/04/19 06:42:15;;;;;;;6.60;5.30;;;;;;;11.49;49.85;98676.53;7381910;26;20635;-81
2024/04/19 06:45:38;;;;;;;5.93;5.33;;;;;;;11.86;48.35;98677.66;7378091;26;20281;-81
2024/04/19 06:49:02;;;;;;;5.87;5.10;;;;;;;11.89;49.13;98666.38;7377803;26;20830;-80
2024/04/19 06:52:27;;;;;;;5.57;4.87;;;;;;;11.81;48.94;98663.94;7341575;26;20254;-82
2024/04/19 06:55:52;;;;;;;5.27;4.77;;;;;;;12.01;48.57;98660.09;7365412;26;20229;-82
2024/04/19 06:59:15;;;;;;;5.97;5.30;;;;;;;11.74;48.40;98646.97;7375357;26;20280;-81
2024/04/19 07:02:38;;;;;;;6.67;4.87;;;;;;;11.62;48.73;98646.00;7378050;26;20289;-80
2024/04/19 07:06:09;;;;;;;5.63;4.67;;;;;;;11.73;48.83;98653.38;7378395;26;20268;-81
2024/04/19 07:09:35;;;;;;;5.50;4.83;;;;;;;12.28;47.46;98634.50;7378122;26;20276;-81
2024/04/19 07:13:01;;;;;;;14.43;4.83;;;;;;;12.52;46.82;98638.28;7378647;26;20267;-81
2024/04/19 07:16:24;;;;;;;7.20;5.07;;;;;;;12.36;47.22;98628.00;7379201;26;20223;-81
2024/04/19 07:19:47;;;;;;;5.87;4.77;;;;;;;12.28;47.78;98623.69;7379148;26;20277;-80
2024/04/19 07:23:10;;;;;;;5.87;4.50;;;;;;;11.95;47.65;98644.75;7379470;26;20225;-81
2024/04/19 07:26:38;;;;;;;6.63;5.63;;;;;;;11.92;48.54;98642.47;7378791;26;20223;-82
2024/04/19 07:30:01;;;;;;;5.30;4.30;;;;;;;11.64;48.40;98627.69;7357104;26;20331;-82
2024/04/19 07:33:24;;;;;;;4.67;4.27;;;;;;;11.61;48.92;98630.81;7378414;26;20289;-84
2024/04/19 07:36:47;;;;;;;4.60;4.20;;;;;;;11.77;48.84;98638.41;7352020;26;20762;-81
2024/04/19 07:40:11;;;;;;;4.73;4.30;;;;;;;11.47;49.15;98619.25;7330758;26;20769;-80
2024/04/19 07:43:38;;;;;;;6.17;4.50;;;;;;;11.64;48.77;98625.78;7331990;27;20257;-81
2024/04/19 07:47:01;;;;;;;5.50;4.67;;;;;;;11.42;50.36;98612.81;7362498;26;21169;-81
2024/04/19 07:50:24;;;;;;;6.03;4.60;;;;;;;11.52;50.11;98605.88;7379844;26;20234;-83
2024/04/19 07:53:47;;;;;;;5.23;4.43;;;;;;;11.89;49.62;98601.56;7383163;26;20222;-79
2024/04/19 07:57:10;;;;;;;5.47;4.97;;;;;;;12.11;49.35;98595.56;7377648;26;20603;-84
2024/04/19 08:00:36;;;;;;;6.00;4.97;;;;;;;11.75;50.03;98592.72;7375231;26;20284;-82
2024/04/19 08:04:00;;;;;;;5.43;4.93;;;;;;;11.28;52.06;98606.63;7376234;26;20245;-82
2024/04/19 08:07:26;;;;;;;6.53;5.93;;;;;;;11.27;52.57;98586.09;7323753;27;20239;-82
2024/04/19 08:10:49;;;;;;;5.73;5.20;;;;;;;11.67;51.71;98581.34;7368768;26;20241;-84
2024/04/19 08:14:12;;;;;;;5.50;5.00;;;;;;;10.79;53.26;98573.19;7365336;26;20276;-84
2024/04/19 08:17:41;;;;;;;7.63;4.77;;;;;;;11.05;54.05;98562.34;7346134;26;20348;-84
2024/04/19 08:21:04;;;;;;;4.67;4.27;;;;;;;10.74;53.72;98556.84;7328824;26;20259;-83
2024/04/19 08:24:28;;;;;;;4.77;4.37;;;;;;;10.44;54.02;98579.91;7369847;26;20242;-83
2024/04/19 08:27:52;;;;;;;5.97;5.00;;;;;;;10.60;55.42;98580.31;7363267;26;20239;-83
2024/04/19 08:31:18;;;;;;;4.87;4.47;;;;;;;10.75;54.59;98558.50;7375270;26;20733;-84
2024/04/19 08:34:46;;;;;;;5.30;4.80;;;;;;;10.88;54.51;98574.63;7374939;26;20268;-83
2024/04/19 08:38:10;;;;;;;5.50;5.00;;;;;;;10.83;55.68;98567.19;7374330;26;20261;-84
2024/04/19 08:41:33;;;;;;;4.77;4.37;;;;;;;10.97;54.56;98551.75;7374940;26;20249;-84
2024/04/19 08:44:56;;;;;;;6.07;4.47;;;;;;;10.66;55.88;98555.19;7374481;26;20264;-83
2024/04/19 08:48:20;;;;;;;5.67;4.50;;;;;;;10.55;56.20;98568.50;7373560;26;20226;-82
2024/04/19 08:51:46;;;;;;;4.87;4.40;;;;;;;10.71;55.16;98552.72;7357199;26;20909;-81
2024/04/19 08:55:11;;;;;;;7.77;5.20;;;;;;;10.51;56.43;98540.31;7380136;26;20276;-80
2024/04/19 08:58:35;;;;;;;5.30;4.80;;;;;;;10.92;57.05;98551.59;7379585;26;20329;-82
2024/04/19 09:01:58;;;;;;;6.43;4.90;;;;;;;10.77;55.84;98540.22;7351744;26;20301;-80
2024/04/19 09:05:21;;;;;;;4.63;4.10;;;;;;;10.58;57.77;98528.47;7380611;26;20625;-82
2024/04/19 09:08:47;;;;;;;6.20;5.17;;;;;;;10.91;56.45;98504.91;7349843;26;20285;-81
2024/04/19 09:12:10;;;;;;;10.80;6.97;;;;;;;10.91;57.62;98517.56;7361887;26;20578;-82
2024/04/19 09:15:36;;;;;;;5.20;4.70;;;;;;;10.96;55.80;98515.88;7354179;26;20238;-81
2024/04/19 09:18:59;;;;;;;5.00;4.53;;;;;;;10.74;56.16;98503.72;7380199;26;20269;-83
2024/04/19 09:22:23;;;;;;;4.60;4.20;;;;;;;10.30;57.62;98486.66;7376509;26;20583;-83
2024/04/19 09:25:54;;;;;;;4.20;3.90;;;;;;;10.46;57.53;98487.03;7378610;26;20242;-86
2024/04/19 09:29:17;;;;;;;4.33;3.73;;;;;;;10.91;57.48;98477.09;7380053;26;20229;-82
2024/04/19 09:32:40;;;;;;;4.63;4.10;;;;;;;10.65;57.95;98464.59;7377939;26;20241;-84
2024/04/19 09:36:04;;;;;;;4.47;4.07;;;;;;;11.20;56.40;98463.88;7380953;26;20284;-80
2024/04/19 09:39:27;;;;;;;5.00;4.50;;;;;;;11.10;56.33;98455.41;7379852;26;20681;-80
2024/04/19 09:42:53;;;;;;;5.03;4.53;;;;;;;11.40;56.36;98450.25;7353529;26;20287;-81
2024/04/19 09:46:19;;;;;;;4.90;4.50;;;;;;;10.20;58.44;98449.38;7353839;26;20284;-81
2024/04/19 09:49:46;;;;;;;5.13;4.73;;;;;;;10.52;57.74;98434.16;7379012;26;20815;-85
2024/04/19 09:53:13;;;;;;;6.87;6.17;;;;;;;10.60;58.37;98448.22;7383708;26;20280;-82
2024/04/19 09:56:40;;;;;;;6.40;5.33;;;;;;;10.49;58.31;98407.63;7392993;26;20240;-81
2024/04/19 10:00:08;;;;;;;4.83;4.43;;;;;;;10.51;58.19;98419.84;7388824;26;20301;-85
2024/04/19 10:03:32;;;;;;;5.20;4.70;;;;;;;9.70;60.09;98414.25;7386347;26;20244;-82
2024/04/19 10:06:57;;;;;;;5.33;4.83;;;;;;;10.08;59.41;98407.97;7378197;26;20242;-80
2024/04/19 10:10:20;;;;;;;5.53;4.80;;;;;;;10.31;58.46;98394.84;7381298;26;20284;-82
2024/04/19 10:13:43;;;;;;;5.57;5.07;;;;;;;10.37;58.79;98394.00;7379516;26;20230;-81
2024/04/19 10:17:09;;;;;;;5.90;5.20;;;;;;;10.80;58.09;98383.41;7377986;26;20238;-79
2024/04/19 10:20:33;;;;;;;5.70;5.17;;;;;;;10.30;58.18;98381.59;7375348;26;20274;-80
2024/04/19 10:23:56;;;;;;;7.50;5.83;;;;;;;10.05;58.97;98346.44;7377079;26;20237;-79
2024/04/19 10:27:19;;;;;;;6.10;5.50;;;;;;;9.62;60.20;98344.50;7354443;26;20238;-79
2024/04/19 10:30:44;;;;;;;6.50;5.80;;;;;;;10.26;59.39;98327.31;7330365;26;20242;-79
2024/04/19 10:34:11;;;;;;;6.83;6.13;;;;;;;10.40;58.11;98346.94;7332422;27;20227;-79
2024/04/19 10:37:35;;;;;;;6.60;6.00;;;;;;;10.15;59.34;98329.84;7377042;26;20284;-79
2024/04/19 10:40:58;;;;;;;5.93;5.43;;;;;;;10.46;59.12;98327.22;7368696;26;20293;-79
2024/04/19 10:44:21;;;;;;;6.70;6.10;;;;;;;10.84;59.53;98317.19;7372613;26;20241;-80
2024/04/19 10:47:45;;;;;;;6.83;6.13;;;;;;;11.01;58.54;98318.31;7335341;26;20293;-80
2024/04/19 10:51:13;;;;;;;6.73;5.40;;;;;;;10.62;59.69;98311.34;7376348;26;20246;-80
2024/04/19 10:54:38;;;;;;;6.20;5.60;;;;;;;10.71;58.31;98312.75;7378253;26;20596;-81
2024/04/19 10:58:01;;;;;;;6.53;5.83;;;;;;;10.60;59.53;98299.97;7377712;26;20270;-80
2024/04/19 11:01:25;;;;;;;6.00;5.37;;;;;;;11.15;58.69;98285.63;7374239;26;20594;-80
2024/04/19 11:04:48;;;;;;;7.00;4.60;;;;;;;10.79;58.20;98279.28;7378140;26;20225;-80
2024/04/19 11:08:14;;;;;;;6.53;5.83;;;;;;;10.78;58.72;98274.94;7378313;26;20737;-80
2024/04/19 11:11:42;;;;;;;5.93;5.03;;;;;;;10.92;59.19;98266.53;7379331;26;20288;-82
2024/04/19 11:15:06;;;;;;;5.07;4.67;;;;;;;10.92;58.53;98276.50;7378342;26;20225;-81
2024/04/19 11:18:30;;;;;;;5.10;4.60;;;;;;;10.43;59.90;98250.31;7377857;26;20280;-81
2024/04/19 11:21:53;;;;;;;8.53;4.73;;;;;;;10.79;58.59;98246.91;7379095;26;20732;-82
2024/04/19 11:25:19;;;;;;;5.03;4.60;;;;;;;10.65;59.19;98256.16;7378466;26;20241;-82
2024/04/19 11:28:47;;;;;;;4.87;4.37;;;;;;;10.71;59.51;98253.44;7377861;26;20225;-83
2024/04/19 11:32:10;;;;;;;4.90;4.40;;;;;;;10.57;60.01;98245.66;7378350;26;20237;-81
2024/04/19 11:35:33;;;;;;;4.50;4.10;;;;;;;10.12;60.05;98241.38;7378753;26;20667;-83
2024/04/19 11:38:57;;;;;;;4.40;4.00;;;;;;;10.29;60.31;98240.66;7377901;26;20225;-82
2024/04/19 11:42:23;;;;;;;5.47;4.47;;;;;;;10.67;59.44;98249.50;7378413;26;20237;-82
2024/04/19 11:45:47;;;;;;;4.53;4.13;;;;;;;10.36;60.57;98233.38;7378045;26;20252;-82
2024/04/19 11:49:15;;;;;;;4.43;4.03;;;;;;;9.95;62.00;98242.88;7376811;26;20299;-82
2024/04/19 11:52:38;;;;;;;5.30;3.90;;;;;;;10.58;60.36;98241.91;7358572;26;20245;-83
2024/04/19 11:56:02;;;;;;;5.33;4.50;;;;;;;10.01;62.13;98239.34;7353114;26;20306;-83
2024/04/19 11:59:27;;;;;;;4.80;4.33;;;;;;;10.50;61.59;98234.09;7327634;26;20265;-83
2024/04/19 12:02:51;;;;;;;3.77;3.47;;;;;;;10.56;58.90;98217.06;7375449;26;20242;-83
2024/04/19 12:06:14;;;;;;;4.03;3.73;;;;;;;10.36;60.59;98233.38;7376028;26;20222;-82
2024/04/19 12:09:37;;;;;;;4.07;3.77;;;;;;;10.27;61.23;98225.75;7375777;26;20221;-82
2024/04/19 12:13:00;;;;;;;4.00;3.60;;;;;;;10.16;61.70;98223.75;7347057;26;20588;-83
2024/04/19 12:16:26;;;;;;;3.50;3.20;;;;;;;10.13;60.38;98230.41;7356487;26;20233;-83
2024/04/19 12:19:49;;;;;;;5.30;3.63;;;;;;;10.07;61.89;98208.88;7333490;26;20288;-83
2024/04/19 12:23:12;;;;;;;4.40;3.30;;;;;;;9.99;61.70;98219.88;7375767;26;20260;-82
2024/04/19 12:26:35;;;;;;;3.20;2.90;;;;;;;10.01;60.88;98215.09;7337830;26;20271;-82
2024/04/19 12:29:58;;;;;;;3.47;3.17;;;;;;;10.25;60.73;98217.06;7325373;26;20235;-83
2024/04/19 12:33:24;;;;;;;3.10;2.90;;;;;;;10.19;60.68;98221.47;7327093;27;20223;-82
2024/04/19 12:36:48;;;;;;;3.17;2.90;;;;;;;9.84;61.68;98200.47;7362264;26;20293;-82
2024/04/19 12:40:12;;;;;;;3.27;2.97;;;;;;;10.23;61.10;98214.59;7345355;26;20622;-82
2024/04/19 12:43:35;;;;;;;3.00;2.80;;;;;;;10.43;60.38;98215.28;7376167;26;20229;-82
2024/04/19 12:46:58;;;;;;;3.70;3.40;;;;;;;10.64;60.40;98193.31;7378168;26;20260;-81
2024/04/19 12:50:24;;;;;;;3.40;3.10;;;;;;;10.20;60.72;98206.09;7358767;26;20290;-81
2024/04/19 12:53:48;;;;;;;3.77;3.47;;;;;;;10.46;61.42;98178.97;7376524;26;20346;-80
2024/04/19 12:57:11;;;;;;;3.13;2.93;;;;;;;10.50;60.04;98191.78;7352198;26;20238;-80
2024/04/19 13:00:34;;;;;;;3.87;2.90;;;;;;;10.44;59.26;98179.19;7363950;26;20250;-80
2024/04/19 13:03:57;;;;;;;2.97;2.77;;;;;;;10.23;58.85;98170.66;7373628;26;20621;-79
2024/04/19 13:07:23;;;;;;;4.27;3.77;;;;;;;10.19;60.61;98150.59;7371429;26;20260;-79
2024/04/19 13:10:47;;;;;;;3.13;2.93;;;;;;;10.77;59.13;98166.28;7372626;26;20635;-79
2024/04/19 13:14:10;;;;;;;5.37;3.13;;;;;;;10.71;58.71;98150.16;7372439;26;20319;-79
2024/04/19 13:17:37;;;;;;;2.77;2.57;;;;;;;10.39;60.20;98143.19;7371731;26;20226;-80
2024/04/19 13:21:00;;;;;;;2.70;2.50;;;;;;;10.55;59.22;98137.22;7372244;26;20241;-79
2024/04/19 13:24:25;;;;;;;3.37;3.07;;;;;;;10.90;59.41;98143.72;7372194;26;20225;-79
2024/04/19 13:27:49;;;;;;;3.00;2.80;;;;;;;10.61;59.95;98134.47;7379910;26;20775;-81
2024/04/19 13:31:12;;;;;;;3.20;2.90;;;;;;;10.35;60.39;98142.81;7385764;26;20637;-80
2024/04/19 13:34:35;;;;;;;3.10;2.80;;;;;;;10.45;60.23;98142.31;7374868;26;20233;-80
2024/04/19 13:38:00;;;;;;;3.07;2.83;;;;;;;10.38;60.38;98136.13;7374631;26;20230;-80
2024/04/19 13:41:26;;;;;;;3.20;3.00;;;;;;;10.74;60.66;98142.44;7380029;26;20335;-80
2024/04/19 13:44:49;;;;;;;3.10;2.90;;;;;;;10.45;59.73;98135.03;7376473;26;20225;-80
2024/04/19 13:48:12;;;;;;;2.70;2.50;;;;;;;10.33;60.46;98130.59;7330678;27;20219;-80
2024/04/19 13:51:36;;;;;;;2.50;2.37;;;;;;;10.79;59.05;98118.34;7331512;26;20235;-80
2024/04/19 13:54:59;;;;;;;6.67;5.43;;;;;;;10.37;59.73;98108.38;7333356;26;20377;-79
2024/04/19 13:58:29;;;;;;;3.27;3.07;;;;;;;10.60;59.42;98110.44;7377003;26;20787;-80
2024/04/19 14:01:52;;;;;;;2.70;2.50;;;;;;;10.46;59.89;98119.69;7376619;26;20308;-79
2024/04/19 14:05:15;;;;;;;2.70;2.50;;;;;;;10.47;59.32;98110.56;7377285;26;20269;-79
2024/04/19 14:08:38;;;;;;;2.47;2.37;;;;;;;10.40;59.49;98116.00;7377094;26;20226;-80
2024/04/19 14:12:01;;;;;;;2.77;2.57;;;;;;;10.52;60.56;98105.34;7377320;26;20242;-80
2024/04/19 14:15:28;;;;;;;2.33;2.20;;;;;;;10.53;60.25;98115.06;7377911;26;20282;-79
2024/04/19 14:18:51;;;;;;;2.70;2.50;;;;;;;10.41;60.80;98097.97;7376292;26;20230;-80
2024/04/19 14:22:16;;;;;;;3.50;3.20;;;;;;;10.63;60.80;98096.53;7378246;26;20287;-79
2024/04/19 14:25:40;;;;;;;2.60;2.40;;;;;;;10.39;60.44;98100.06;7377893;26;20281;-80
2024/04/19 14:29:03;;;;;;;2.77;2.50;;;;;;;10.42;61.56;98097.75;7369439;26;20289;-79
2024/04/19 14:32:29;;;;;;;2.33;2.20;;;;;;;10.59;60.14;98098.84;7377213;26;20234;-79
2024/04/19 14:35:52;;;;;;;2.53;2.43;;;;;;;10.31;60.71;98068.00;7378198;26;20274;-79
2024/04/19 14:39:15;;;;;;;2.60;2.40;;;;;;;10.58;60.24;98074.81;7374654;26;20284;-80
2024/04/19 14:42:39;;;;;;;2.30;2.20;;;;;;;9.84;62.64;98068.56;7378344;26;20281;-79
2024/04/19 14:46:02;;;;;;;2.57;2.37;;;;;;;10.05;62.31;98069.03;7377394;26;20222;-79
2024/04/19 14:49:28;;;;;;;2.77;2.03;;;;;;;10.45;60.79;98053.38;7382021;26;20576;-81
2024/04/19 14:52:51;;;;;;;2.30;2.10;;;;;;;10.70;60.97;98062.22;7384124;26;20237;-80
2024/04/19 14:56:14;;;;;;;2.03;1.93;;;;;;;10.45;61.15;98053.38;7376346;26;20277;-79
2024/04/19 14:59:37;;;;;;;2.20;2.10;;;;;;;10.88;60.82;98040.66;7375051;26;20242;-81
2024/04/19 15:03:00;;;;;;;2.03;1.93;;;;;;;10.73;60.47;98027.56;7371751;26;20233;-80
2024/04/19 15:06:29;;;;;;;2.00;1.90;;;;;;;10.76;60.31;98039.78;7372110;26;20229;-81
2024/04/19 15:09:54;;;;;;;2.10;2.00;;;;;;;10.61;60.17;98015.03;7326475;27;20264;-80
2024/04/19 15:13:17;;;;;;;2.00;1.90;;;;;;;10.59;59.77;98036.00;7326973;27;20274;-79
2024/04/19 15:16:40;;;;;;;1.70;1.60;;;;;;;10.50;60.00;98015.81;7326862;27;20231;-83
2024/04/19 15:20:03;;;;;;;1.80;1.70;;;;;;;9.92;61.49;98003.69;7325994;26;20246;-81
2024/04/19 15:23:29;;;;;;;1.70;1.60;;;;;;;10.29;60.08;98017.06;7327052;27;20238;-79
2024/04/19 15:26:52;;;;;;;2.03;1.93;;;;;;;10.64;59.38;98014.59;7326609;27;20603;-79
2024/04/19 15:30:16;;;;;;;1.87;1.77;;;;;;;10.20;60.41;98018.38;7326530;26;21049;-78
2024/04/19 15:33:39;;;;;;;1.80;1.70;;;;;;;10.49;58.74;98001.50;7326832;27;20269;-80
2024/04/19 15:37:02;;;;;;;1.80;1.70;;;;;;;10.11;60.49;98013.50;7327206;27;20601;-80
2024/04/19 15:40:28;;;;;;;2.50;2.10;;;;;;;10.12;61.41;98001.66;7326115;26;20748;-80
2024/04/19 15:43:52;;;;;;;2.53;2.33;;;;;;;10.60;60.03;98008.84;7326234;27;20273;-79
2024/04/19 15:47:15;;;;;;;1.90;1.80;;;;;;;10.23;61.25;97999.09;7326368;27;20269;-78
2024/04/19 15:50:39;;;;;;;2.07;1.90;;;;;;;10.13;61.39;98019.47;7326083;26;20250;-81
2024/04/19 15:54:02;;;;;;;2.10;1.90;;;;;;;10.34;59.87;97998.34;7346411;26;20588;-79
2024/04/19 15:57:30;;;;;;;2.03;1.90;;;;;;;10.20;60.82;98015.69;7372459;26;20330;-79
2024/04/19 16:00:53;;;;;;;2.10;2.00;;;;;;;10.04;62.25;98001.97;7373393;26;20234;-80
2024/04/19 16:04:16;;;;;;;2.10;2.00;;;;;;;10.12;62.00;98012.44;7373727;26;20284;-79
2024/04/19 16:07:39;;;;;;;1.80;1.70;;;;;;;10.66;59.43;98016.03;7372943;26;20269;-80